createdAt,value
2023-03-06T00:02:17.702Z,94653.53
2023-03-06T00:04:46.014Z,94646.94
2023-03-06T00:07:14.440Z,94647.75
2023-03-06T00:09:42.765Z,94649.94
2023-03-06T00:12:11.549Z,94649.63
2023-03-06T00:14:39.866Z,94654.31
2023-03-06T00:17:09.535Z,94647.09
2023-03-06T00:19:37.847Z,94648.00
2023-03-06T00:22:06.154Z,94649.75
2023-03-06T00:24:34.468Z,94641.84
2023-03-06T00:27:02.832Z,94535.63
2023-03-06T00:29:31.144Z,94645.88
2023-03-06T00:31:59.651Z,94646.00
2023-03-06T00:34:29.663Z,94613.69
2023-03-06T00:36:58.075Z,94638.50
2023-03-06T00:39:26.354Z,94613.78
2023-03-06T00:41:55.732Z,94633.59
2023-03-06T00:44:24.655Z,94624.91
2023-03-06T00:46:53.251Z,94553.31
2023-03-06T00:49:21.918Z,94621.53
2023-03-06T00:51:51.683Z,94610.59
2023-03-06T00:54:19.995Z,94604.59
2023-03-06T00:56:48.302Z,94621.38
2023-03-06T00:59:16.866Z,94616.06
2023-03-06T01:01:45.354Z,94611.72
2023-03-06T01:04:13.734Z,94615.31
2023-03-06T01:06:42.012Z,94604.38
2023-03-06T01:09:11.923Z,94594.59
2023-03-06T01:11:40.257Z,94611.50
2023-03-06T01:14:08.784Z,94618.66
2023-03-06T01:16:37.199Z,94564.38
2023-03-06T01:19:06.078Z,94602.06
2023-03-06T01:21:34.464Z,94604.13
2023-03-06T01:24:02.804Z,94601.28
2023-03-06T01:26:33.665Z,94477.13
2023-03-06T01:29:02.306Z,94592.97
2023-03-06T01:31:30.699Z,94603.44
2023-03-06T01:33:59.013Z,94577.97
2023-03-06T01:36:27.606Z,94583.78
2023-03-06T01:38:55.967Z,94586.22
2023-03-06T01:41:24.446Z,94568.66
2023-03-06T01:43:54.359Z,94578.22
2023-03-06T01:46:42.391Z,94569.47
2023-03-06T01:49:17.550Z,94573.16
2023-03-06T01:51:51.535Z,94551.09
2023-03-06T01:54:24.462Z,94564.66
2023-03-06T01:56:56.594Z,94555.88
2023-03-06T01:59:27.888Z,94553.03
2023-03-06T02:01:57.935Z,94545.06
2023-03-06T02:04:26.985Z,94519.31
2023-03-06T02:06:56.876Z,94537.34
2023-03-06T02:09:29.920Z,94555.09
2023-03-06T02:11:58.298Z,94450.88
2023-03-06T02:14:28.389Z,94526.91
2023-03-06T02:16:56.893Z,94522.56
2023-03-06T02:19:38.155Z,94427.47
2023-03-06T02:22:06.765Z,94494.69
2023-03-06T02:24:42.990Z,94514.97
2023-03-06T02:27:15.600Z,94470.78
2023-03-06T02:29:47.039Z,94505.31
2023-03-06T02:32:15.351Z,94481.25
2023-03-06T02:34:58.354Z,94493.63
2023-03-06T02:37:28.887Z,94453.88
2023-03-06T02:40:04.669Z,94492.38
2023-03-06T02:42:34.435Z,94484.63
2023-03-06T02:45:05.895Z,94484.06
2023-03-06T02:47:34.278Z,94474.38
2023-03-06T02:50:02.529Z,94470.06
2023-03-06T02:52:30.863Z,94461.84
2023-03-06T02:54:59.168Z,94461.47
2023-03-06T02:57:27.525Z,94464.09
2023-03-06T02:59:57.255Z,94455.50
2023-03-06T03:02:25.531Z,94456.09
2023-03-06T03:04:53.940Z,94455.34
2023-03-06T03:07:22.400Z,94450.13
2023-03-06T03:09:50.733Z,94428.81
2023-03-06T03:12:19.071Z,94437.75
2023-03-06T03:14:47.521Z,94418.28
2023-03-06T03:17:17.713Z,94451.28
2023-03-06T03:19:46.024Z,94421.06
2023-03-06T03:22:14.333Z,94425.13
2023-03-06T03:24:43.405Z,94448.16
2023-03-06T03:27:12.735Z,94426.22
2023-03-06T03:29:41.345Z,94444.41
2023-03-06T03:32:10.633Z,94406.81
2023-03-06T03:34:40.400Z,94450.50
2023-03-06T03:37:08.873Z,94439.25
2023-03-06T03:39:37.728Z,94387.03
2023-03-06T03:42:06.309Z,94438.72
2023-03-06T03:44:34.532Z,94439.13
2023-03-06T03:47:02.852Z,94437.97
2023-03-06T03:49:31.506Z,94426.75
2023-03-06T03:52:01.333Z,94431.50
2023-03-06T03:54:30.162Z,94417.19
2023-03-06T03:56:58.542Z,94383.22
2023-03-06T03:59:29.162Z,94421.38
2023-03-06T04:01:57.522Z,94428.19
2023-03-06T04:04:25.975Z,94417.75
2023-03-06T04:06:54.285Z,94416.63
2023-03-06T04:09:24.501Z,94417.22
2023-03-06T04:11:53.102Z,94413.91
2023-03-06T04:14:21.386Z,94410.69
2023-03-06T04:16:49.714Z,94401.69
2023-03-06T04:19:17.964Z,94410.84
2023-03-06T04:21:46.285Z,94377.94
2023-03-06T04:24:14.934Z,94401.31
2023-03-06T04:26:44.692Z,94397.03
2023-03-06T04:29:13.056Z,94406.13
2023-03-06T04:31:41.424Z,94394.47
2023-03-06T04:34:10.097Z,94394.53
2023-03-06T04:36:39.025Z,94358.84
2023-03-06T04:39:07.528Z,94391.88
2023-03-06T04:41:35.904Z,94376.13
2023-03-06T04:44:05.871Z,94391.56
2023-03-06T04:46:34.186Z,94390.69
2023-03-06T04:49:02.644Z,94390.91
2023-03-06T04:51:30.964Z,94375.50
2023-03-06T04:53:59.316Z,94382.09
2023-03-06T04:56:28.071Z,94370.19
2023-03-06T04:58:56.809Z,94370.50
2023-03-06T05:01:26.909Z,94364.72
2023-03-06T05:03:55.583Z,94364.41
2023-03-06T05:06:23.915Z,94368.13
2023-03-06T05:08:52.307Z,94364.50
2023-03-06T05:11:20.671Z,94363.91
2023-03-06T05:13:49.519Z,94364.50
2023-03-06T05:16:17.948Z,94347.16
2023-03-06T05:18:50.416Z,94363.19
2023-03-06T05:21:19.237Z,94361.09
2023-03-06T05:23:47.780Z,94361.47
2023-03-06T05:26:17.129Z,94353.47
2023-03-06T05:28:45.926Z,94329.22
2023-03-06T05:31:14.286Z,94319.28
2023-03-06T05:33:42.560Z,94348.31
2023-03-06T05:36:12.483Z,94308.56
2023-03-06T05:38:40.754Z,94346.56
2023-03-06T05:41:13.059Z,94346.16
2023-03-06T05:43:41.742Z,94331.72
2023-03-06T05:46:10.713Z,94353.94
2023-03-06T05:48:39.365Z,94328.47
2023-03-06T05:51:07.938Z,94344.00
2023-03-06T05:53:37.611Z,94348.50
2023-03-06T05:56:08.982Z,94340.00
2023-03-06T05:58:37.697Z,94351.41
2023-03-06T06:01:11.366Z,94348.00
2023-03-06T06:03:39.802Z,94344.19
2023-03-06T06:06:09.934Z,94334.16
2023-03-06T06:08:40.543Z,94344.75
2023-03-06T06:11:11.232Z,94309.16
2023-03-06T06:13:39.950Z,94350.13
2023-03-06T06:16:09.315Z,94336.31
2023-03-06T06:18:40.592Z,94305.59
2023-03-06T06:21:11.074Z,94343.06
2023-03-06T06:23:40.811Z,94344.31
2023-03-06T06:26:10.617Z,94342.16
2023-03-06T06:28:39.209Z,94339.28
2023-03-06T06:31:12.460Z,94331.50
2023-03-06T06:33:41.926Z,94339.38
2023-03-06T06:36:17.776Z,94350.38
2023-03-06T06:38:47.652Z,94336.41
2023-03-06T06:41:50.531Z,94356.38
2023-03-06T06:44:08.435Z,94303.91
2023-03-06T06:47:20.939Z,94324.59
2023-03-06T06:49:25.929Z,94343.50
2023-03-06T06:51:54.339Z,94340.75
2023-03-06T06:54:24.041Z,94348.38
2023-03-06T06:56:52.647Z,94349.09
2023-03-06T06:59:23.770Z,94348.91
2023-03-06T07:01:52.526Z,94358.53
2023-03-06T07:04:21.576Z,94349.66
2023-03-06T07:06:49.958Z,94340.03
2023-03-06T07:09:18.243Z,94337.16
2023-03-06T07:11:48.456Z,94307.47
2023-03-06T07:14:17.011Z,94349.16
2023-03-06T07:16:45.329Z,94340.75
2023-03-06T07:19:13.648Z,94339.28
2023-03-06T07:21:42.371Z,94335.28
2023-03-06T07:24:10.697Z,94340.03
2023-03-06T07:26:39.030Z,94322.63
2023-03-06T07:29:08.997Z,94336.88
2023-03-06T07:31:37.383Z,94317.78
2023-03-06T07:34:05.750Z,94336.09
2023-03-06T07:36:34.799Z,94344.00
2023-03-06T07:39:03.193Z,94339.59
2023-03-06T07:41:31.557Z,94340.91
2023-03-06T07:43:59.840Z,94307.34
2023-03-06T07:46:29.662Z,94331.41
2023-03-06T07:48:58.353Z,94325.72
2023-03-06T07:51:27.294Z,94337.03
2023-03-06T07:53:55.706Z,94331.94
2023-03-06T07:56:25.092Z,94326.22
2023-03-06T07:58:54.779Z,94340.72
2023-03-06T08:01:25.030Z,94301.69
2023-03-06T08:03:55.400Z,94310.06
2023-03-06T08:06:25.894Z,94337.25
2023-03-06T08:08:56.560Z,94341.38
2023-03-06T08:11:27.135Z,94341.28
2023-03-06T08:13:56.461Z,94333.19
2023-03-06T08:16:26.764Z,94306.69
2023-03-06T08:18:56.706Z,94334.78
2023-03-06T08:21:28.959Z,94322.09
2023-03-06T08:23:57.942Z,94339.53
2023-03-06T08:26:28.603Z,94336.63
2023-03-06T08:28:58.359Z,94348.91
2023-03-06T08:31:34.735Z,94340.41
2023-03-06T08:34:06.939Z,94219.06
2023-03-06T08:36:35.448Z,94343.94
2023-03-06T08:39:03.964Z,94345.34
2023-03-06T08:41:33.229Z,94338.97
2023-03-06T08:44:01.569Z,94351.84
2023-03-06T08:46:30.968Z,94346.84
2023-03-06T08:48:59.728Z,94352.25
2023-03-06T08:51:29.875Z,94348.63
2023-03-06T08:53:59.366Z,94358.97
2023-03-06T08:56:30.001Z,94356.16
2023-03-06T08:59:00.663Z,94343.38
2023-03-06T09:01:30.816Z,94356.16
2023-03-06T09:04:01.472Z,94360.25
2023-03-06T09:06:34.032Z,94354.94
2023-03-06T09:09:02.751Z,94368.13
2023-03-06T09:11:31.466Z,94369.28
2023-03-06T09:14:00.189Z,94365.84
2023-03-06T09:16:29.163Z,94361.91
2023-03-06T09:18:57.981Z,94367.34
2023-03-06T09:21:28.372Z,94360.91
2023-03-06T09:23:58.607Z,94346.50
2023-03-06T09:26:39.707Z,94371.72
2023-03-06T09:29:12.710Z,94375.78
2023-03-06T09:31:41.072Z,94369.69
2023-03-06T09:34:09.390Z,94358.72
2023-03-06T09:36:53.452Z,94368.22
2023-03-06T09:39:25.998Z,94351.53
2023-03-06T09:41:55.364Z,94364.34
2023-03-06T09:44:27.752Z,94374.69
2023-03-06T09:47:23.279Z,94366.28
2023-03-06T09:50:09.998Z,94350.22
2023-03-06T09:52:46.156Z,94373.78
2023-03-06T09:55:19.075Z,94336.91
2023-03-06T09:57:55.765Z,94330.34
2023-03-06T10:00:29.401Z,94358.97
2023-03-06T10:03:07.001Z,94367.66
2023-03-06T10:05:40.793Z,94365.78
2023-03-06T10:08:22.812Z,94359.13
2023-03-06T10:10:59.280Z,94340.00
2023-03-06T10:13:34.858Z,94357.09
2023-03-06T10:16:13.821Z,94359.56
2023-03-06T10:18:42.353Z,94354.31
2023-03-06T10:21:25.432Z,94328.91
2023-03-06T10:23:55.851Z,94358.00
2023-03-06T10:26:28.189Z,94368.06
2023-03-06T10:29:10.329Z,94370.44
2023-03-06T10:31:44.768Z,94372.75
2023-03-06T10:34:22.301Z,94351.59
2023-03-06T10:36:50.916Z,94368.91
2023-03-06T10:39:22.082Z,94367.84
2023-03-06T10:41:51.910Z,94359.06
2023-03-06T10:44:23.658Z,94365.19
2023-03-06T10:46:54.779Z,94361.72
2023-03-06T10:49:27.561Z,94375.06
2023-03-06T10:52:01.944Z,94374.59
2023-03-06T10:54:31.915Z,94368.56
2023-03-06T10:57:20.344Z,94372.31
2023-03-06T10:59:54.822Z,94373.06
2023-03-06T11:02:28.666Z,94364.00
2023-03-06T11:04:58.486Z,94358.53
2023-03-06T11:07:28.534Z,94357.69
2023-03-06T11:10:03.639Z,94312.91
2023-03-06T11:12:34.626Z,94360.38
2023-03-06T11:15:21.332Z,94356.34
2023-03-06T11:17:53.639Z,94348.63
2023-03-06T11:20:24.003Z,94339.84
2023-03-06T11:22:56.420Z,94348.03
2023-03-06T11:25:31.337Z,94355.97
2023-03-06T11:28:05.355Z,94271.81
2023-03-06T11:30:40.629Z,94337.06
2023-03-06T11:33:18.399Z,94334.03
2023-03-06T11:35:55.898Z,94312.13
2023-03-06T11:38:34.398Z,94340.97
2023-03-06T11:41:07.319Z,94338.66
2023-03-06T11:43:51.266Z,94331.19
2023-03-06T11:46:25.278Z,94317.38
2023-03-06T11:48:55.600Z,94321.94
2023-03-06T11:51:27.550Z,94317.94
2023-03-06T11:53:56.628Z,94313.44
2023-03-06T11:56:33.197Z,94316.97
2023-03-06T11:59:25.532Z,94312.16
2023-03-06T12:02:00.752Z,94313.16
2023-03-06T12:04:42.744Z,94303.88
2023-03-06T12:07:23.254Z,94312.09
2023-03-06T12:09:57.259Z,94298.28
2023-03-06T12:12:47.547Z,94294.03
2023-03-06T12:15:28.574Z,94302.09
2023-03-06T12:18:13.467Z,94297.84
2023-03-06T12:20:52.110Z,94294.66
2023-03-06T12:23:35.235Z,94295.16
2023-03-06T12:26:12.630Z,94293.06
2023-03-06T12:28:58.011Z,94291.19
2023-03-06T12:31:44.075Z,94295.69
2023-03-06T12:34:26.665Z,94287.94
2023-03-06T12:37:06.221Z,94277.00
2023-03-06T12:39:49.630Z,94297.22
2023-03-06T12:42:35.414Z,94300.41
2023-03-06T12:45:19.101Z,94292.41
2023-03-06T12:47:53.059Z,94302.56
2023-03-06T12:50:26.292Z,94304.13
2023-03-06T12:52:56.421Z,94314.72
2023-03-06T12:55:26.865Z,94271.25
2023-03-06T12:57:55.415Z,94310.53
2023-03-06T13:01:03.722Z,94304.63
2023-03-06T13:03:46.906Z,94301.50
2023-03-06T13:06:39.043Z,94301.97
2023-03-06T13:09:19.992Z,94258.22
2023-03-06T13:12:20.660Z,94257.94
2023-03-06T13:14:57.540Z,94297.47
2023-03-06T13:17:37.914Z,94299.84
2023-03-06T13:20:35.425Z,94298.97
2023-03-06T13:23:43.277Z,94295.50
2023-03-06T13:26:33.366Z,94304.00
2023-03-06T13:29:01.805Z,94293.41
2023-03-06T13:31:51.034Z,94293.91
2023-03-06T13:34:36.634Z,94279.75
2023-03-06T13:37:50.117Z,94296.59
2023-03-06T13:40:35.740Z,94278.50
2023-03-06T13:43:23.322Z,94281.69
2023-03-06T13:45:52.221Z,94291.31
2023-03-06T13:48:43.487Z,94284.44
2023-03-06T13:51:24.210Z,94283.91
2023-03-06T13:54:21.671Z,94289.22
2023-03-06T13:57:05.704Z,94290.28
2023-03-06T13:59:56.991Z,94278.59
2023-03-06T14:02:42.555Z,94283.91
2023-03-06T14:05:16.374Z,94247.13
2023-03-06T14:07:46.251Z,94278.78
2023-03-06T14:10:26.440Z,94280.72
2023-03-06T14:13:06.990Z,94280.16
2023-03-06T14:15:44.687Z,94279.66
2023-03-06T14:18:19.660Z,94277.38
2023-03-06T14:20:52.749Z,94283.66
2023-03-06T14:23:28.581Z,94279.94
2023-03-06T14:26:06.502Z,94280.03
2023-03-06T14:28:36.890Z,94247.00
2023-03-06T14:31:07.629Z,94244.63
2023-03-06T14:33:44.202Z,94254.78
2023-03-06T14:36:15.455Z,94266.78
2023-03-06T14:38:49.456Z,94237.47
2023-03-06T14:41:27.213Z,94250.59
2023-03-06T14:44:09.832Z,94253.53
2023-03-06T14:46:38.176Z,94256.16
2023-03-06T14:49:08.924Z,94262.53
2023-03-06T14:51:42.958Z,94241.25
2023-03-06T14:54:17.195Z,94251.34
2023-03-06T14:56:48.915Z,94250.34
2023-03-06T14:59:22.215Z,94229.78
2023-03-06T15:01:53.647Z,94256.69
2023-03-06T15:04:30.046Z,94255.63
2023-03-06T15:07:00.251Z,94262.25
2023-03-06T15:09:31.678Z,94263.03
2023-03-06T15:12:03.018Z,94259.84
2023-03-06T15:14:36.060Z,94262.47
2023-03-06T15:17:23.354Z,94264.06
2023-03-06T15:19:54.655Z,94255.56
2023-03-06T15:22:29.949Z,94254.47
2023-03-06T15:25:26.811Z,94262.47
2023-03-06T15:27:58.372Z,94248.78
2023-03-06T15:30:30.253Z,94258.75
2023-03-06T15:33:24.956Z,94237.84
2023-03-06T15:35:55.166Z,94267.25
2023-03-06T15:38:26.479Z,94275.16
2023-03-06T15:40:59.109Z,94279.38
2023-03-06T15:43:30.098Z,94269.44
2023-03-06T15:46:01.700Z,94279.06
2023-03-06T15:48:30.095Z,94280.81
2023-03-06T15:50:58.911Z,94278.50
2023-03-06T15:53:27.320Z,94280.03
2023-03-06T15:55:56.370Z,94276.44
2023-03-06T15:58:26.977Z,94266.31
2023-03-06T16:00:57.040Z,94278.16
2023-03-06T16:03:25.377Z,94273.31
2023-03-06T16:05:53.700Z,94267.94
2023-03-06T16:08:21.969Z,94268.59
2023-03-06T16:10:51.798Z,94253.31
2023-03-06T16:13:27.340Z,94235.50
2023-03-06T16:15:57.666Z,94275.81
2023-03-06T16:18:25.998Z,94279.00
2023-03-06T16:20:54.500Z,94243.47
2023-03-06T16:23:23.341Z,94235.75
2023-03-06T16:25:51.809Z,94284.31
2023-03-06T16:28:20.118Z,94283.16
2023-03-06T16:30:48.759Z,94275.72
2023-03-06T16:33:18.514Z,94280.22
2023-03-06T16:35:47.403Z,94285.84
2023-03-06T16:38:16.885Z,94279.53
2023-03-06T16:40:45.412Z,94277.34
2023-03-06T16:43:16.311Z,94284.91
2023-03-06T16:45:45.249Z,94280.59
2023-03-06T16:48:18.484Z,94287.47
2023-03-06T16:50:47.041Z,94269.53
2023-03-06T16:53:15.721Z,94286.94
2023-03-06T16:55:44.610Z,94263.78
2023-03-06T16:58:12.938Z,94235.75
2023-03-06T17:00:41.408Z,94228.41
2023-03-06T17:03:09.770Z,94299.75
2023-03-06T17:05:39.800Z,94293.00
2023-03-06T17:08:08.116Z,94293.78
2023-03-06T17:10:36.540Z,94298.28
2023-03-06T17:13:05.280Z,94300.72
2023-03-06T17:15:33.627Z,94294.91
2023-03-06T17:18:02.806Z,94307.59
2023-03-06T17:20:31.126Z,94313.16
2023-03-06T17:23:00.844Z,94303.41
2023-03-06T17:25:29.155Z,94315.13
2023-03-06T17:27:57.394Z,94250.16
2023-03-06T17:30:25.729Z,94309.09
2023-03-06T17:32:53.983Z,94317.59
2023-03-06T17:35:22.312Z,94308.44
2023-03-06T17:37:50.838Z,94307.63
2023-03-06T17:40:20.751Z,94324.47
2023-03-06T17:42:50.765Z,94319.22
2023-03-06T17:45:19.286Z,94297.66
2023-03-06T17:47:49.126Z,94318.66
2023-03-06T17:50:17.778Z,94290.94
2023-03-06T17:52:46.096Z,94282.31
2023-03-06T17:55:14.664Z,94305.47
2023-03-06T17:57:45.496Z,94345.44
2023-03-06T18:00:14.699Z,94326.34
2023-03-06T18:02:45.481Z,94316.56
2023-03-06T18:05:14.148Z,94327.19
2023-03-06T18:07:42.606Z,94321.06
2023-03-06T18:10:11.841Z,94238.06
2023-03-06T18:12:40.238Z,94298.91
2023-03-06T18:15:11.177Z,94306.91
2023-03-06T18:17:40.005Z,94310.94
2023-03-06T18:20:09.140Z,94290.28
2023-03-06T18:22:37.885Z,94312.25
2023-03-06T18:25:06.827Z,94320.47
2023-03-06T18:27:35.439Z,94316.00
2023-03-06T18:30:04.438Z,94310.41
2023-03-06T18:32:34.233Z,94291.63
2023-03-06T18:35:02.853Z,94303.75
2023-03-06T18:37:31.161Z,94290.94
2023-03-06T18:39:59.545Z,94299.50
2023-03-06T18:42:27.944Z,94298.72
2023-03-06T18:44:56.300Z,94308.03
2023-03-06T18:47:24.680Z,94299.81
2023-03-06T18:49:54.617Z,94302.16
2023-03-06T18:52:22.874Z,94304.31
2023-03-06T18:54:51.253Z,94301.66
2023-03-06T18:57:19.827Z,94287.31
2023-03-06T18:59:48.453Z,94293.97
2023-03-06T19:02:16.834Z,94296.91
2023-03-06T19:04:45.147Z,94300.00
2023-03-06T19:07:16.029Z,94297.88
2023-03-06T19:09:44.618Z,94269.38
2023-03-06T19:12:13.010Z,94074.28
2023-03-06T19:14:41.284Z,94245.31
2023-03-06T19:17:09.873Z,94290.44
2023-03-06T19:19:38.143Z,94277.81
2023-03-06T19:22:06.478Z,94287.19
2023-03-06T19:24:36.349Z,94289.84
2023-03-06T19:27:05.290Z,94295.00
2023-03-06T19:29:34.643Z,94264.16
2023-03-06T19:32:03.212Z,94281.56
2023-03-06T19:34:31.824Z,94279.19
2023-03-06T19:37:00.528Z,94288.50
2023-03-06T19:39:28.894Z,94285.63
2023-03-06T19:41:58.568Z,94281.84
2023-03-06T19:44:27.276Z,94292.97
2023-03-06T19:46:55.543Z,94286.63
2023-03-06T19:49:24.857Z,94282.69
2023-03-06T19:51:53.120Z,94280.31
2023-03-06T19:54:23.581Z,94284.00
2023-03-06T19:56:53.385Z,94282.69
2023-03-06T19:59:24.640Z,94277.09
2023-03-06T20:01:54.804Z,94273.34
2023-03-06T20:04:24.529Z,94278.16
2023-03-06T20:06:54.342Z,94270.19
2023-03-06T20:09:23.936Z,94292.22
2023-03-06T20:11:53.717Z,94272.56
2023-03-06T20:14:25.530Z,94262.72
2023-03-06T20:16:55.154Z,94268.63
2023-03-06T20:19:25.336Z,94269.38
2023-03-06T20:21:56.532Z,94267.28
2023-03-06T20:24:26.548Z,94250.22
2023-03-06T20:26:58.507Z,94262.84
2023-03-06T20:29:31.083Z,94261.25
2023-03-06T20:32:01.746Z,94254.13
2023-03-06T20:34:31.614Z,94262.75
2023-03-06T20:37:01.314Z,94255.84
2023-03-06T20:39:31.190Z,94253.75
2023-03-06T20:42:01.023Z,94235.91
2023-03-06T20:44:33.440Z,94251.53
2023-03-06T20:47:03.122Z,94249.16
2023-03-06T20:49:33.320Z,94246.19
2023-03-06T20:52:02.966Z,94230.44
2023-03-06T20:54:32.762Z,94233.47
2023-03-06T20:57:02.753Z,94239.41
2023-03-06T20:59:34.315Z,94229.84
2023-03-06T21:02:04.385Z,94240.22
2023-03-06T21:04:34.652Z,94227.09
2023-03-06T21:07:04.381Z,94239.41
2023-03-06T21:09:34.755Z,94237.03
2023-03-06T21:12:05.954Z,94228.84
2023-03-06T21:14:37.241Z,94230.38
2023-03-06T21:17:06.203Z,94207.88
2023-03-06T21:19:35.790Z,94225.88
2023-03-06T21:22:06.028Z,94228.28
2023-03-06T21:24:36.363Z,94214.97
2023-03-06T21:27:07.039Z,94215.78
2023-03-06T21:29:38.630Z,94200.56
2023-03-06T21:32:08.820Z,94209.13
2023-03-06T21:34:37.597Z,94203.22
2023-03-06T21:37:05.886Z,94192.56
2023-03-06T21:39:34.489Z,94200.41
2023-03-06T21:42:02.782Z,94175.38
2023-03-06T21:44:31.184Z,94180.69
2023-03-06T21:47:01.148Z,94189.47
2023-03-06T21:49:29.673Z,94133.78
2023-03-06T21:51:58.709Z,94159.78
2023-03-06T21:54:29.720Z,94193.28
2023-03-06T21:56:58.500Z,94174.56
2023-03-06T21:59:27.021Z,94156.66
2023-03-06T22:01:55.370Z,94164.94
2023-03-06T22:04:25.168Z,93979.09
2023-03-06T22:06:53.695Z,94154.63
2023-03-06T22:09:22.097Z,94170.06
2023-03-06T22:11:50.493Z,94175.38
2023-03-06T22:14:18.833Z,94127.09
2023-03-06T22:16:47.124Z,94167.50
2023-03-06T22:19:15.791Z,94172.44
2023-03-06T22:21:45.629Z,94170.88
2023-03-06T22:24:13.939Z,94168.25
2023-03-06T22:26:42.286Z,94147.47
2023-03-06T22:29:10.572Z,94167.75
2023-03-06T22:31:40.377Z,94168.84
2023-03-06T22:34:08.941Z,94162.38
2023-03-06T22:36:37.274Z,94137.00
2023-03-06T22:39:07.531Z,94148.44
2023-03-06T22:41:35.908Z,94137.81
2023-03-06T22:44:04.185Z,94148.97
2023-03-06T22:46:33.360Z,94139.91
2023-03-06T22:49:02.041Z,94143.66
2023-03-06T22:51:30.884Z,94140.69
2023-03-06T22:53:59.516Z,94136.75
2023-03-06T22:56:29.336Z,94128.59
2023-03-06T22:58:58.337Z,94102.69
2023-03-06T23:01:28.986Z,94125.22
2023-03-06T23:03:59.301Z,94114.25
2023-03-06T23:06:29.736Z,94119.88
2023-03-06T23:09:00.519Z,94125.44
2023-03-06T23:11:31.171Z,94121.09
2023-03-06T23:14:00.244Z,94115.31
2023-03-06T23:16:29.520Z,94109.34
2023-03-06T23:18:57.844Z,94119.16
2023-03-06T23:21:26.777Z,94129.78
2023-03-06T23:23:55.876Z,94052.03
2023-03-06T23:26:27.172Z,94088.41
2023-03-06T23:28:57.775Z,94088.25
2023-03-06T23:31:28.928Z,94076.22
2023-03-06T23:33:59.031Z,94061.56
2023-03-06T23:36:27.450Z,94080.06
2023-03-06T23:38:55.783Z,94074.03
2023-03-06T23:41:24.977Z,94077.69
2023-03-06T23:43:55.170Z,94062.56
2023-03-06T23:46:25.232Z,94058.09
2023-03-06T23:48:53.840Z,94060.16
2023-03-06T23:51:24.056Z,94053.19
2023-03-06T23:53:56.539Z,93987.94
2023-03-06T23:56:25.824Z,94047.28
2023-03-06T23:58:54.955Z,94004.91
